sensor_id;sensor_type;location;lat;lon;timestamp;P1;durP1;ratioP1;P2;durP2;ratioP2
66143;SDS011;52947;50.842;6.084;2023-02-19T00:02:27;7.82;;;5.47;;
66143;SDS011;52947;50.842;6.084;2023-02-19T00:04:56;7.32;;;5.53;;
66143;SDS011;52947;50.842;6.084;2023-02-19T00:07:25;7.95;;;4.88;;
66143;SDS011;52947;50.842;6.084;2023-02-19T00:09:53;11.30;;;5.97;;
66143;SDS011;52947;50.842;6.084;2023-02-19T00:12:20;9.10;;;6.15;;
66143;SDS011;52947;50.842;6.084;2023-02-19T00:14:48;8.40;;;5.80;;
66143;SDS011;52947;50.842;6.084;2023-02-19T00:17:16;7.60;;;5.15;;
66143;SDS011;52947;50.842;6.084;2023-02-19T00:19:44;8.30;;;5.78;;
66143;SDS011;52947;50.842;6.084;2023-02-19T00:22:13;6.50;;;4.93;;
66143;SDS011;52947;50.842;6.084;2023-02-19T00:24:41;7.70;;;5.30;;
66143;SDS011;52947;50.842;6.084;2023-02-19T00:27:09;5.95;;;4.20;;
66143;SDS011;52947;50.842;6.084;2023-02-19T00:29:37;6.40;;;4.53;;
66143;SDS011;52947;50.842;6.084;2023-02-19T00:32:05;7.72;;;4.35;;
66143;SDS011;52947;50.842;6.084;2023-02-19T00:34:33;6.88;;;5.07;;
66143;SDS011;52947;50.842;6.084;2023-02-19T00:37:00;7.53;;;4.75;;
66143;SDS011;52947;50.842;6.084;2023-02-19T00:39:30;6.20;;;4.53;;
66143;SDS011;52947;50.842;6.084;2023-02-19T00:41:58;8.25;;;4.90;;
66143;SDS011;52947;50.842;6.084;2023-02-19T00:44:26;7.70;;;4.95;;
66143;SDS011;52947;50.842;6.084;2023-02-19T00:46:54;7.78;;;4.80;;
66143;SDS011;52947;50.842;6.084;2023-02-19T00:49:22;7.45;;;4.93;;
66143;SDS011;52947;50.842;6.084;2023-02-19T00:51:50;7.90;;;4.55;;
66143;SDS011;52947;50.842;6.084;2023-02-19T00:54:19;7.93;;;4.43;;
66143;SDS011;52947;50.842;6.084;2023-02-19T00:56:50;7.07;;;4.68;;
66143;SDS011;52947;50.842;6.084;2023-02-19T00:59:18;6.93;;;4.50;;
66143;SDS011;52947;50.842;6.084;2023-02-19T01:01:46;6.28;;;4.45;;
66143;SDS011;52947;50.842;6.084;2023-02-19T01:06:43;6.80;;;4.55;;
66143;SDS011;52947;50.842;6.084;2023-02-19T01:09:11;8.07;;;4.70;;
66143;SDS011;52947;50.842;6.084;2023-02-19T01:11:39;7.85;;;5.43;;
66143;SDS011;52947;50.842;6.084;2023-02-19T01:14:09;7.15;;;5.03;;
66143;SDS011;52947;50.842;6.084;2023-02-19T01:16:37;8.13;;;5.25;;
66143;SDS011;52947;50.842;6.084;2023-02-19T01:19:05;9.00;;;5.38;;
66143;SDS011;52947;50.842;6.084;2023-02-19T01:21:34;8.85;;;5.30;;
66143;SDS011;52947;50.842;6.084;2023-02-19T01:24:02;10.18;;;5.57;;
66143;SDS011;52947;50.842;6.084;2023-02-19T01:26:31;7.70;;;5.07;;
66143;SDS011;52947;50.842;6.084;2023-02-19T01:29:01;7.07;;;4.60;;
66143;SDS011;52947;50.842;6.084;2023-02-19T01:31:31;7.82;;;4.75;;
66143;SDS011;52947;50.842;6.084;2023-02-19T01:34:00;6.10;;;4.50;;
66143;SDS011;52947;50.842;6.084;2023-02-19T01:36:31;8.40;;;4.53;;
66143;SDS011;52947;50.842;6.084;2023-02-19T01:39:00;7.68;;;4.50;;
66143;SDS011;52947;50.842;6.084;2023-02-19T01:41:31;8.15;;;4.38;;
66143;SDS011;52947;50.842;6.084;2023-02-19T01:44:02;5.47;;;3.53;;
66143;SDS011;52947;50.842;6.084;2023-02-19T01:46:36;6.30;;;3.83;;
66143;SDS011;52947;50.842;6.084;2023-02-19T01:49:06;6.78;;;4.30;;
66143;SDS011;52947;50.842;6.084;2023-02-19T01:51:37;8.20;;;5.20;;
66143;SDS011;52947;50.842;6.084;2023-02-19T01:54:08;9.20;;;5.50;;
66143;SDS011;52947;50.842;6.084;2023-02-19T01:56:38;9.60;;;5.25;;
66143;SDS011;52947;50.842;6.084;2023-02-19T01:59:10;10.52;;;5.18;;
66143;SDS011;52947;50.842;6.084;2023-02-19T02:01:40;9.77;;;4.78;;
66143;SDS011;52947;50.842;6.084;2023-02-19T02:06:38;14.37;;;6.30;;
66143;SDS011;52947;50.842;6.084;2023-02-19T02:09:08;10.43;;;6.40;;
66143;SDS011;52947;50.842;6.084;2023-02-19T02:11:56;10.00;;;5.80;;
66143;SDS011;52947;50.842;6.084;2023-02-19T02:14:26;9.75;;;6.15;;
66143;SDS011;52947;50.842;6.084;2023-02-19T02:17:00;9.52;;;6.00;;
66143;SDS011;52947;50.842;6.084;2023-02-19T02:19:44;9.30;;;6.10;;
66143;SDS011;52947;50.842;6.084;2023-02-19T02:22:30;13.68;;;6.85;;
66143;SDS011;52947;50.842;6.084;2023-02-19T02:25:13;12.73;;;7.40;;
66143;SDS011;52947;50.842;6.084;2023-02-19T02:27:56;13.77;;;7.03;;
66143;SDS011;52947;50.842;6.084;2023-02-19T02:30:38;12.38;;;6.85;;
66143;SDS011;52947;50.842;6.084;2023-02-19T02:33:14;10.18;;;6.57;;
66143;SDS011;52947;50.842;6.084;2023-02-19T02:35:48;14.27;;;6.07;;
66143;SDS011;52947;50.842;6.084;2023-02-19T02:38:20;10.05;;;5.70;;
66143;SDS011;52947;50.842;6.084;2023-02-19T02:40:52;15.50;;;7.53;;
66143;SDS011;52947;50.842;6.084;2023-02-19T02:43:22;12.63;;;6.88;;
66143;SDS011;52947;50.842;6.084;2023-02-19T02:45:52;11.80;;;6.55;;
66143;SDS011;52947;50.842;6.084;2023-02-19T02:48:29;12.05;;;5.65;;
66143;SDS011;52947;50.842;6.084;2023-02-19T02:51:04;12.10;;;5.57;;
66143;SDS011;52947;50.842;6.084;2023-02-19T02:53:52;14.63;;;5.85;;
66143;SDS011;52947;50.842;6.084;2023-02-19T02:56:41;16.25;;;8.18;;
66143;SDS011;52947;50.842;6.084;2023-02-19T02:59:11;9.45;;;6.28;;
66143;SDS011;52947;50.842;6.084;2023-02-19T03:01:42;15.90;;;5.97;;
66143;SDS011;52947;50.842;6.084;2023-02-19T03:07:02;14.30;;;6.13;;
66143;SDS011;52947;50.842;6.084;2023-02-19T03:09:36;13.65;;;5.75;;
66143;SDS011;52947;50.842;6.084;2023-02-19T03:12:09;13.02;;;6.43;;
66143;SDS011;52947;50.842;6.084;2023-02-19T03:15:00;14.15;;;5.82;;
66143;SDS011;52947;50.842;6.084;2023-02-19T03:17:53;14.48;;;6.30;;
66143;SDS011;52947;50.842;6.084;2023-02-19T03:20:43;13.40;;;6.00;;
66143;SDS011;52947;50.842;6.084;2023-02-19T03:23:15;8.88;;;5.30;;
66143;SDS011;52947;50.842;6.084;2023-02-19T03:25:46;8.80;;;5.53;;
66143;SDS011;52947;50.842;6.084;2023-02-19T03:28:51;11.50;;;6.32;;
66143;SDS011;52947;50.842;6.084;2023-02-19T03:31:41;14.50;;;5.00;;
66143;SDS011;52947;50.842;6.084;2023-02-19T03:34:13;10.40;;;5.72;;
66143;SDS011;52947;50.842;6.084;2023-02-19T03:36:45;11.35;;;5.25;;
66143;SDS011;52947;50.842;6.084;2023-02-19T03:39:19;10.30;;;5.55;;
66143;SDS011;52947;50.842;6.084;2023-02-19T03:41:52;13.60;;;5.53;;
66143;SDS011;52947;50.842;6.084;2023-02-19T03:44:28;13.30;;;5.88;;
66143;SDS011;52947;50.842;6.084;2023-02-19T03:47:06;10.05;;;5.15;;
66143;SDS011;52947;50.842;6.084;2023-02-19T03:49:44;11.80;;;5.70;;
66143;SDS011;52947;50.842;6.084;2023-02-19T03:52:19;15.20;;;5.57;;
66143;SDS011;52947;50.842;6.084;2023-02-19T03:54:56;12.35;;;5.65;;
66143;SDS011;52947;50.842;6.084;2023-02-19T03:57:32;12.50;;;4.85;;
66143;SDS011;52947;50.842;6.084;2023-02-19T04:00:08;12.00;;;5.05;;
66143;SDS011;52947;50.842;6.084;2023-02-19T04:02:39;16.65;;;5.60;;
66143;SDS011;52947;50.842;6.084;2023-02-19T04:05:13;10.40;;;5.00;;
66143;SDS011;52947;50.842;6.084;2023-02-19T04:07:45;11.48;;;5.10;;
66143;SDS011;52947;50.842;6.084;2023-02-19T04:10:20;14.63;;;5.20;;
66143;SDS011;52947;50.842;6.084;2023-02-19T04:12:52;13.98;;;5.30;;
66143;SDS011;52947;50.842;6.084;2023-02-19T04:15:26;10.48;;;4.93;;
66143;SDS011;52947;50.842;6.084;2023-02-19T04:17:57;13.77;;;5.65;;
66143;SDS011;52947;50.842;6.084;2023-02-19T04:20:32;12.05;;;5.05;;
66143;SDS011;52947;50.842;6.084;2023-02-19T04:23:05;13.20;;;4.93;;
66143;SDS011;52947;50.842;6.084;2023-02-19T04:25:33;12.48;;;5.28;;
66143;SDS011;52947;50.842;6.084;2023-02-19T04:28:05;18.55;;;5.43;;
66143;SDS011;52947;50.842;6.084;2023-02-19T04:33:02;14.30;;;5.20;;
66143;SDS011;52947;50.842;6.084;2023-02-19T04:35:31;14.75;;;5.28;;
66143;SDS011;52947;50.842;6.084;2023-02-19T04:37:59;9.43;;;5.10;;
66143;SDS011;52947;50.842;6.084;2023-02-19T04:40:27;12.85;;;5.13;;
66143;SDS011;52947;50.842;6.084;2023-02-19T04:42:54;14.05;;;5.45;;
66143;SDS011;52947;50.842;6.084;2023-02-19T04:45:22;11.95;;;4.45;;
66143;SDS011;52947;50.842;6.084;2023-02-19T04:47:50;16.35;;;6.03;;
66143;SDS011;52947;50.842;6.084;2023-02-19T04:50:18;15.43;;;5.53;;
66143;SDS011;52947;50.842;6.084;2023-02-19T04:52:48;11.60;;;4.93;;
66143;SDS011;52947;50.842;6.084;2023-02-19T04:55:16;11.77;;;4.93;;
66143;SDS011;52947;50.842;6.084;2023-02-19T04:57:44;12.57;;;5.30;;
66143;SDS011;52947;50.842;6.084;2023-02-19T05:00:12;9.73;;;4.50;;
66143;SDS011;52947;50.842;6.084;2023-02-19T05:02:40;10.13;;;4.22;;
66143;SDS011;52947;50.842;6.084;2023-02-19T05:05:08;11.35;;;3.90;;
66143;SDS011;52947;50.842;6.084;2023-02-19T05:07:36;14.35;;;4.60;;
66143;SDS011;52947;50.842;6.084;2023-02-19T05:10:05;16.65;;;4.85;;
66143;SDS011;52947;50.842;6.084;2023-02-19T05:12:33;9.23;;;3.67;;
66143;SDS011;52947;50.842;6.084;2023-02-19T05:15:03;10.50;;;4.13;;
66143;SDS011;52947;50.842;6.084;2023-02-19T05:17:31;12.05;;;4.10;;
66143;SDS011;52947;50.842;6.084;2023-02-19T05:22:28;11.68;;;3.50;;
66143;SDS011;52947;50.842;6.084;2023-02-19T05:24:56;11.40;;;3.70;;
66143;SDS011;52947;50.842;6.084;2023-02-19T05:27:25;12.95;;;4.03;;
66143;SDS011;52947;50.842;6.084;2023-02-19T05:29:53;11.32;;;4.13;;
66143;SDS011;52947;50.842;6.084;2023-02-19T05:32:21;10.68;;;3.65;;
66143;SDS011;52947;50.842;6.084;2023-02-19T05:34:49;12.25;;;3.95;;
66143;SDS011;52947;50.842;6.084;2023-02-19T05:37:17;16.95;;;3.90;;
66143;SDS011;52947;50.842;6.084;2023-02-19T05:39:45;12.18;;;3.45;;
66143;SDS011;52947;50.842;6.084;2023-02-19T05:42:14;8.73;;;3.90;;
66143;SDS011;52947;50.842;6.084;2023-02-19T05:44:43;10.50;;;3.70;;
66143;SDS011;52947;50.842;6.084;2023-02-19T05:47:11;10.05;;;3.60;;
66143;SDS011;52947;50.842;6.084;2023-02-19T05:49:39;9.15;;;3.95;;
66143;SDS011;52947;50.842;6.084;2023-02-19T05:52:07;15.02;;;4.00;;
66143;SDS011;52947;50.842;6.084;2023-02-19T05:54:34;13.48;;;4.32;;
66143;SDS011;52947;50.842;6.084;2023-02-19T05:57:02;11.98;;;3.70;;
66143;SDS011;52947;50.842;6.084;2023-02-19T05:59:30;18.23;;;4.55;;
66143;SDS011;52947;50.842;6.084;2023-02-19T06:01:59;13.13;;;3.60;;
66143;SDS011;52947;50.842;6.084;2023-02-19T06:04:27;8.93;;;3.58;;
66143;SDS011;52947;50.842;6.084;2023-02-19T06:06:55;11.68;;;3.75;;
66143;SDS011;52947;50.842;6.084;2023-02-19T06:09:23;11.68;;;3.75;;
66143;SDS011;52947;50.842;6.084;2023-02-19T06:11:50;13.65;;;3.83;;
66143;SDS011;52947;50.842;6.084;2023-02-19T06:14:18;14.55;;;4.68;;
66143;SDS011;52947;50.842;6.084;2023-02-19T06:16:46;9.68;;;4.05;;
66143;SDS011;52947;50.842;6.084;2023-02-19T06:19:15;14.30;;;4.75;;
66143;SDS011;52947;50.842;6.084;2023-02-19T06:21:43;9.65;;;3.40;;
66143;SDS011;52947;50.842;6.084;2023-02-19T06:24:11;8.30;;;3.60;;
66143;SDS011;52947;50.842;6.084;2023-02-19T06:26:39;14.38;;;4.40;;
66143;SDS011;52947;50.842;6.084;2023-02-19T06:29:07;22.85;;;4.75;;
66143;SDS011;52947;50.842;6.084;2023-02-19T06:31:35;10.57;;;4.40;;
66143;SDS011;52947;50.842;6.084;2023-02-19T06:34:03;14.45;;;4.00;;
66143;SDS011;52947;50.842;6.084;2023-02-19T06:36:32;13.23;;;4.07;;
66143;SDS011;52947;50.842;6.084;2023-02-19T06:39:01;11.80;;;3.58;;
66143;SDS011;52947;50.842;6.084;2023-02-19T06:41:29;18.20;;;4.43;;
66143;SDS011;52947;50.842;6.084;2023-02-19T06:43:57;15.10;;;4.13;;
66143;SDS011;52947;50.842;6.084;2023-02-19T06:46:25;14.90;;;4.00;;
66143;SDS011;52947;50.842;6.084;2023-02-19T06:48:53;12.82;;;4.28;;
66143;SDS011;52947;50.842;6.084;2023-02-19T06:51:21;15.05;;;4.40;;
66143;SDS011;52947;50.842;6.084;2023-02-19T06:53:53;13.90;;;4.93;;
66143;SDS011;52947;50.842;6.084;2023-02-19T06:56:22;17.00;;;4.22;;
66143;SDS011;52947;50.842;6.084;2023-02-19T06:58:52;9.20;;;4.00;;
66143;SDS011;52947;50.842;6.084;2023-02-19T07:01:20;16.80;;;4.82;;
66143;SDS011;52947;50.842;6.084;2023-02-19T07:03:48;15.98;;;4.25;;
66143;SDS011;52947;50.842;6.084;2023-02-19T07:06:17;13.38;;;4.07;;
66143;SDS011;52947;50.842;6.084;2023-02-19T07:08:46;17.35;;;4.45;;
66143;SDS011;52947;50.842;6.084;2023-02-19T07:11:15;13.07;;;4.28;;
66143;SDS011;52947;50.842;6.084;2023-02-19T07:13:44;14.18;;;3.88;;
66143;SDS011;52947;50.842;6.084;2023-02-19T07:16:12;8.50;;;3.28;;
66143;SDS011;52947;50.842;6.084;2023-02-19T07:18:40;14.40;;;3.80;;
66143;SDS011;52947;50.842;6.084;2023-02-19T07:21:09;18.00;;;3.85;;
66143;SDS011;52947;50.842;6.084;2023-02-19T07:23:38;11.18;;;3.47;;
66143;SDS011;52947;50.842;6.084;2023-02-19T07:26:07;16.42;;;4.88;;
66143;SDS011;52947;50.842;6.084;2023-02-19T07:28:36;13.73;;;3.42;;
66143;SDS011;52947;50.842;6.084;2023-02-19T07:33:32;18.48;;;4.05;;
66143;SDS011;52947;50.842;6.084;2023-02-19T07:36:00;19.88;;;3.90;;
66143;SDS011;52947;50.842;6.084;2023-02-19T07:38:28;16.53;;;3.57;;
66143;SDS011;52947;50.842;6.084;2023-02-19T07:40:56;13.52;;;3.70;;
66143;SDS011;52947;50.842;6.084;2023-02-19T07:43:27;8.38;;;2.65;;
66143;SDS011;52947;50.842;6.084;2023-02-19T07:45:58;12.90;;;3.25;;
66143;SDS011;52947;50.842;6.084;2023-02-19T07:48:28;16.10;;;4.13;;
66143;SDS011;52947;50.842;6.084;2023-02-19T07:50:57;8.43;;;3.22;;
66143;SDS011;52947;50.842;6.084;2023-02-19T07:53:26;16.92;;;3.38;;
66143;SDS011;52947;50.842;6.084;2023-02-19T07:55:57;19.42;;;4.57;;
66143;SDS011;52947;50.842;6.084;2023-02-19T07:58:26;15.20;;;4.22;;
66143;SDS011;52947;50.842;6.084;2023-02-19T08:00:54;15.30;;;4.10;;
66143;SDS011;52947;50.842;6.084;2023-02-19T08:03:23;7.88;;;3.17;;
66143;SDS011;52947;50.842;6.084;2023-02-19T08:05:50;12.97;;;3.10;;
66143;SDS011;52947;50.842;6.084;2023-02-19T08:08:20;8.45;;;2.85;;
66143;SDS011;52947;50.842;6.084;2023-02-19T08:10:48;13.77;;;3.50;;
66143;SDS011;52947;50.842;6.084;2023-02-19T08:13:33;18.27;;;4.10;;
66143;SDS011;52947;50.842;6.084;2023-02-19T08:16:09;15.95;;;3.90;;
66143;SDS011;52947;50.842;6.084;2023-02-19T08:18:56;13.32;;;2.90;;
66143;SDS011;52947;50.842;6.084;2023-02-19T08:21:24;10.90;;;3.17;;
66143;SDS011;52947;50.842;6.084;2023-02-19T08:23:52;13.82;;;3.17;;
66143;SDS011;52947;50.842;6.084;2023-02-19T08:26:20;19.02;;;3.03;;
66143;SDS011;52947;50.842;6.084;2023-02-19T08:28:48;11.73;;;3.20;;
66143;SDS011;52947;50.842;6.084;2023-02-19T08:31:16;15.80;;;3.17;;
66143;SDS011;52947;50.842;6.084;2023-02-19T08:33:44;12.75;;;3.30;;
66143;SDS011;52947;50.842;6.084;2023-02-19T08:36:13;11.05;;;3.10;;
66143;SDS011;52947;50.842;6.084;2023-02-19T08:38:41;9.02;;;2.97;;
66143;SDS011;52947;50.842;6.084;2023-02-19T08:41:10;10.55;;;2.92;;
66143;SDS011;52947;50.842;6.084;2023-02-19T08:43:39;14.45;;;2.80;;
66143;SDS011;52947;50.842;6.084;2023-02-19T08:46:09;14.18;;;3.03;;
66143;SDS011;52947;50.842;6.084;2023-02-19T08:51:07;20.15;;;3.20;;
66143;SDS011;52947;50.842;6.084;2023-02-19T08:53:38;11.77;;;3.08;;
66143;SDS011;52947;50.842;6.084;2023-02-19T08:56:07;12.82;;;2.78;;
66143;SDS011;52947;50.842;6.084;2023-02-19T08:58:36;15.00;;;3.03;;
66143;SDS011;52947;50.842;6.084;2023-02-19T09:01:06;19.98;;;3.38;;
66143;SDS011;52947;50.842;6.084;2023-02-19T09:03:36;8.43;;;2.70;;
66143;SDS011;52947;50.842;6.084;2023-02-19T09:06:04;12.38;;;3.00;;
66143;SDS011;52947;50.842;6.084;2023-02-19T09:08:32;11.07;;;3.30;;
66143;SDS011;52947;50.842;6.084;2023-02-19T09:11:02;11.55;;;3.15;;
66143;SDS011;52947;50.842;6.084;2023-02-19T09:13:32;10.88;;;3.60;;
66143;SDS011;52947;50.842;6.084;2023-02-19T09:16:01;12.43;;;3.92;;
66143;SDS011;52947;50.842;6.084;2023-02-19T09:18:29;12.10;;;4.00;;
66143;SDS011;52947;50.842;6.084;2023-02-19T09:20:58;14.25;;;3.70;;
66143;SDS011;52947;50.842;6.084;2023-02-19T09:23:27;11.10;;;3.15;;
66143;SDS011;52947;50.842;6.084;2023-02-19T09:25:55;10.93;;;2.95;;
66143;SDS011;52947;50.842;6.084;2023-02-19T09:28:26;13.52;;;4.05;;
66143;SDS011;52947;50.842;6.084;2023-02-19T09:30:54;11.05;;;3.70;;
66143;SDS011;52947;50.842;6.084;2023-02-19T09:33:22;9.98;;;3.88;;
66143;SDS011;52947;50.842;6.084;2023-02-19T09:35:50;11.02;;;3.90;;
66143;SDS011;52947;50.842;6.084;2023-02-19T09:38:18;11.13;;;3.83;;
66143;SDS011;52947;50.842;6.084;2023-02-19T09:40:46;12.88;;;4.38;;
66143;SDS011;52947;50.842;6.084;2023-02-19T09:43:15;11.15;;;4.03;;
66143;SDS011;52947;50.842;6.084;2023-02-19T09:45:47;12.40;;;4.32;;
66143;SDS011;52947;50.842;6.084;2023-02-19T09:48:16;9.40;;;4.68;;
66143;SDS011;52947;50.842;6.084;2023-02-19T09:50:44;14.95;;;4.28;;
66143;SDS011;52947;50.842;6.084;2023-02-19T09:53:16;14.88;;;4.70;;
66143;SDS011;52947;50.842;6.084;2023-02-19T09:55:47;14.30;;;4.78;;
66143;SDS011;52947;50.842;6.084;2023-02-19T09:58:17;17.77;;;5.15;;
66143;SDS011;52947;50.842;6.084;2023-02-19T10:00:54;11.68;;;4.40;;
66143;SDS011;52947;50.842;6.084;2023-02-19T10:03:25;12.27;;;4.50;;
66143;SDS011;52947;50.842;6.084;2023-02-19T10:05:57;9.82;;;3.80;;
66143;SDS011;52947;50.842;6.084;2023-02-19T10:08:29;14.88;;;3.38;;
66143;SDS011;52947;50.842;6.084;2023-02-19T10:10:59;7.75;;;3.80;;
66143;SDS011;52947;50.842;6.084;2023-02-19T10:15:59;5.47;;;3.43;;
66143;SDS011;52947;50.842;6.084;2023-02-19T10:18:37;13.18;;;4.40;;
66143;SDS011;52947;50.842;6.084;2023-02-19T10:21:08;14.32;;;4.40;;
66143;SDS011;52947;50.842;6.084;2023-02-19T10:23:40;16.05;;;5.32;;
66143;SDS011;52947;50.842;6.084;2023-02-19T10:26:09;15.07;;;5.00;;
66143;SDS011;52947;50.842;6.084;2023-02-19T10:28:37;12.93;;;5.47;;
66143;SDS011;52947;50.842;6.084;2023-02-19T10:31:10;14.35;;;4.80;;
66143;SDS011;52947;50.842;6.084;2023-02-19T10:33:49;15.23;;;5.20;;
66143;SDS011;52947;50.842;6.084;2023-02-19T10:36:23;12.68;;;4.75;;
66143;SDS011;52947;50.842;6.084;2023-02-19T10:38:57;16.98;;;5.20;;
66143;SDS011;52947;50.842;6.084;2023-02-19T10:41:26;9.93;;;4.07;;
66143;SDS011;52947;50.842;6.084;2023-02-19T10:43:56;11.15;;;4.45;;
66143;SDS011;52947;50.842;6.084;2023-02-19T10:46:30;9.32;;;4.80;;
66143;SDS011;52947;50.842;6.084;2023-02-19T10:49:02;13.35;;;4.40;;
66143;SDS011;52947;50.842;6.084;2023-02-19T10:51:33;12.55;;;4.22;;
66143;SDS011;52947;50.842;6.084;2023-02-19T10:54:03;11.75;;;4.47;;
66143;SDS011;52947;50.842;6.084;2023-02-19T10:56:33;7.50;;;4.18;;
66143;SDS011;52947;50.842;6.084;2023-02-19T10:59:14;9.52;;;5.28;;
66143;SDS011;52947;50.842;6.084;2023-02-19T11:01:54;10.13;;;5.50;;
66143;SDS011;52947;50.842;6.084;2023-02-19T11:04:24;12.07;;;5.13;;
66143;SDS011;52947;50.842;6.084;2023-02-19T11:06:53;7.43;;;4.88;;
66143;SDS011;52947;50.842;6.084;2023-02-19T11:11:52;10.93;;;5.20;;
66143;SDS011;52947;50.842;6.084;2023-02-19T11:14:21;12.15;;;4.95;;
66143;SDS011;52947;50.842;6.084;2023-02-19T11:16:51;11.48;;;5.28;;
66143;SDS011;52947;50.842;6.084;2023-02-19T11:19:24;11.35;;;4.60;;
66143;SDS011;52947;50.842;6.084;2023-02-19T11:21:55;10.10;;;5.22;;
66143;SDS011;52947;50.842;6.084;2023-02-19T11:24:26;13.65;;;5.32;;
66143;SDS011;52947;50.842;6.084;2023-02-19T11:26:56;10.77;;;5.25;;
66143;SDS011;52947;50.842;6.084;2023-02-19T11:29:25;13.32;;;5.50;;
66143;SDS011;52947;50.842;6.084;2023-02-19T11:31:54;12.52;;;7.60;;
66143;SDS011;52947;50.842;6.084;2023-02-19T11:34:28;13.18;;;7.45;;
66143;SDS011;52947;50.842;6.084;2023-02-19T11:37:07;20.20;;;13.45;;
66143;SDS011;52947;50.842;6.084;2023-02-19T11:39:36;9.93;;;5.28;;
66143;SDS011;52947;50.842;6.084;2023-02-19T11:45:11;14.02;;;8.50;;
66143;SDS011;52947;50.842;6.084;2023-02-19T11:47:49;16.30;;;8.98;;
66143;SDS011;52947;50.842;6.084;2023-02-19T11:50:36;19.58;;;8.07;;
66143;SDS011;52947;50.842;6.084;2023-02-19T11:53:15;14.15;;;8.00;;
66143;SDS011;52947;50.842;6.084;2023-02-19T11:55:53;16.90;;;8.30;;
66143;SDS011;52947;50.842;6.084;2023-02-19T11:58:35;20.93;;;9.73;;
66143;SDS011;52947;50.842;6.084;2023-02-19T12:01:14;25.52;;;15.05;;
66143;SDS011;52947;50.842;6.084;2023-02-19T12:03:53;21.20;;;13.48;;
66143;SDS011;52947;50.842;6.084;2023-02-19T12:06:42;27.48;;;9.48;;
66143;SDS011;52947;50.842;6.084;2023-02-19T12:09:33;22.90;;;13.18;;
66143;SDS011;52947;50.842;6.084;2023-02-19T12:12:33;14.93;;;9.32;;
66143;SDS011;52947;50.842;6.084;2023-02-19T12:15:26;17.50;;;7.80;;
66143;SDS011;52947;50.842;6.084;2023-02-19T12:18:25;20.17;;;10.73;;
66143;SDS011;52947;50.842;6.084;2023-02-19T12:21:10;14.82;;;7.32;;
66143;SDS011;52947;50.842;6.084;2023-02-19T12:23:56;16.33;;;7.88;;
66143;SDS011;52947;50.842;6.084;2023-02-19T12:26:39;17.20;;;7.97;;
66143;SDS011;52947;50.842;6.084;2023-02-19T12:29:23;15.93;;;7.55;;
66143;SDS011;52947;50.842;6.084;2023-02-19T12:32:11;12.77;;;7.05;;
66143;SDS011;52947;50.842;6.084;2023-02-19T12:37:46;12.65;;;6.05;;
66143;SDS011;52947;50.842;6.084;2023-02-19T12:40:29;16.60;;;6.55;;
66143;SDS011;52947;50.842;6.084;2023-02-19T12:43:08;14.02;;;5.85;;
66143;SDS011;52947;50.842;6.084;2023-02-19T12:45:41;17.02;;;6.57;;
66143;SDS011;52947;50.842;6.084;2023-02-19T12:48:17;15.23;;;7.18;;
66143;SDS011;52947;50.842;6.084;2023-02-19T12:50:54;13.90;;;6.88;;
66143;SDS011;52947;50.842;6.084;2023-02-19T12:53:30;16.48;;;6.72;;
66143;SDS011;52947;50.842;6.084;2023-02-19T12:56:07;13.85;;;6.15;;
66143;SDS011;52947;50.842;6.084;2023-02-19T12:58:39;15.60;;;6.30;;
66143;SDS011;52947;50.842;6.084;2023-02-19T13:01:12;12.50;;;5.50;;
66143;SDS011;52947;50.842;6.084;2023-02-19T13:03:47;11.52;;;5.30;;
66143;SDS011;52947;50.842;6.084;2023-02-19T13:06:23;13.10;;;5.40;;
66143;SDS011;52947;50.842;6.084;2023-02-19T13:08:59;13.13;;;5.38;;
66143;SDS011;52947;50.842;6.084;2023-02-19T13:11:34;15.95;;;5.60;;
66143;SDS011;52947;50.842;6.084;2023-02-19T13:14:10;11.68;;;6.15;;
66143;SDS011;52947;50.842;6.084;2023-02-19T13:16:47;12.02;;;5.72;;
66143;SDS011;52947;50.842;6.084;2023-02-19T13:19:19;13.20;;;6.78;;
66143;SDS011;52947;50.842;6.084;2023-02-19T13:21:49;17.27;;;6.13;;
66143;SDS011;52947;50.842;6.084;2023-02-19T13:24:40;13.80;;;5.97;;
66143;SDS011;52947;50.842;6.084;2023-02-19T13:27:25;12.30;;;6.53;;
66143;SDS011;52947;50.842;6.084;2023-02-19T13:30:24;10.82;;;5.60;;
66143;SDS011;52947;50.842;6.084;2023-02-19T13:33:10;13.57;;;6.25;;
66143;SDS011;52947;50.842;6.084;2023-02-19T13:38:36;16.55;;;9.30;;
66143;SDS011;52947;50.842;6.084;2023-02-19T13:41:14;14.73;;;9.02;;
66143;SDS011;52947;50.842;6.084;2023-02-19T13:43:52;11.90;;;6.28;;
66143;SDS011;52947;50.842;6.084;2023-02-19T13:46:22;20.58;;;6.22;;
66143;SDS011;52947;50.842;6.084;2023-02-19T13:51:42;15.55;;;6.57;;
66143;SDS011;52947;50.842;6.084;2023-02-19T13:54:21;20.23;;;6.93;;
66143;SDS011;52947;50.842;6.084;2023-02-19T13:59:52;14.93;;;6.40;;
66143;SDS011;52947;50.842;6.084;2023-02-19T14:02:29;9.88;;;5.30;;
66143;SDS011;52947;50.842;6.084;2023-02-19T14:05:00;21.80;;;6.13;;
66143;SDS011;52947;50.842;6.084;2023-02-19T14:07:32;10.73;;;5.65;;
66143;SDS011;52947;50.842;6.084;2023-02-19T14:10:04;13.13;;;5.15;;
66143;SDS011;52947;50.842;6.084;2023-02-19T14:12:38;9.90;;;4.82;;
66143;SDS011;52947;50.842;6.084;2023-02-19T14:21:13;14.20;;;6.40;;
66143;SDS011;52947;50.842;6.084;2023-02-19T14:23:43;11.00;;;5.68;;
66143;SDS011;52947;50.842;6.084;2023-02-19T14:26:11;13.93;;;5.72;;
66143;SDS011;52947;50.842;6.084;2023-02-19T14:28:43;15.00;;;5.68;;
66143;SDS011;52947;50.842;6.084;2023-02-19T14:31:21;12.00;;;6.25;;
66143;SDS011;52947;50.842;6.084;2023-02-19T14:33:55;14.18;;;6.07;;
66143;SDS011;52947;50.842;6.084;2023-02-19T14:36:36;10.63;;;5.32;;
66143;SDS011;52947;50.842;6.084;2023-02-19T14:39:11;10.80;;;5.10;;
66143;SDS011;52947;50.842;6.084;2023-02-19T14:41:44;11.88;;;5.15;;
66143;SDS011;52947;50.842;6.084;2023-02-19T14:44:16;10.82;;;4.80;;
66143;SDS011;52947;50.842;6.084;2023-02-19T14:46:50;9.73;;;4.70;;
66143;SDS011;52947;50.842;6.084;2023-02-19T14:49:23;8.75;;;4.35;;
66143;SDS011;52947;50.842;6.084;2023-02-19T14:51:55;11.43;;;5.57;;
66143;SDS011;52947;50.842;6.084;2023-02-19T14:54:31;11.23;;;5.38;;
66143;SDS011;52947;50.842;6.084;2023-02-19T14:57:04;11.25;;;5.88;;
66143;SDS011;52947;50.842;6.084;2023-02-19T14:59:38;9.88;;;5.90;;
66143;SDS011;52947;50.842;6.084;2023-02-19T15:02:14;12.70;;;5.47;;
66143;SDS011;52947;50.842;6.084;2023-02-19T15:04:43;11.15;;;5.45;;
66143;SDS011;52947;50.842;6.084;2023-02-19T15:07:12;13.07;;;6.05;;
66143;SDS011;52947;50.842;6.084;2023-02-19T15:09:44;9.80;;;5.80;;
66143;SDS011;52947;50.842;6.084;2023-02-19T15:12:16;7.25;;;4.70;;
66143;SDS011;52947;50.842;6.084;2023-02-19T15:14:46;12.73;;;6.32;;
66143;SDS011;52947;50.842;6.084;2023-02-19T15:17:19;10.35;;;5.55;;
66143;SDS011;52947;50.842;6.084;2023-02-19T15:19:52;11.07;;;5.35;;
66143;SDS011;52947;50.842;6.084;2023-02-19T15:22:21;13.38;;;5.82;;
66143;SDS011;52947;50.842;6.084;2023-02-19T15:24:53;10.02;;;5.43;;
66143;SDS011;52947;50.842;6.084;2023-02-19T15:27:22;11.27;;;6.25;;
66143;SDS011;52947;50.842;6.084;2023-02-19T15:29:51;10.27;;;6.78;;
66143;SDS011;52947;50.842;6.084;2023-02-19T15:32:22;14.85;;;7.35;;
66143;SDS011;52947;50.842;6.084;2023-02-19T15:34:52;13.20;;;7.22;;
66143;SDS011;52947;50.842;6.084;2023-02-19T15:37:21;13.25;;;7.68;;
66143;SDS011;52947;50.842;6.084;2023-02-19T15:39:50;16.25;;;7.35;;
66143;SDS011;52947;50.842;6.084;2023-02-19T15:42:20;14.18;;;6.95;;
66143;SDS011;52947;50.842;6.084;2023-02-19T15:44:51;12.35;;;7.32;;
66143;SDS011;52947;50.842;6.084;2023-02-19T15:47:25;13.98;;;7.22;;
66143;SDS011;52947;50.842;6.084;2023-02-19T15:49:59;11.73;;;7.05;;
66143;SDS011;52947;50.842;6.084;2023-02-19T15:52:36;11.63;;;6.90;;